sensor_id;sensor_type;location;lat;lon;timestamp;temperature;humidity
21061;DHT22;10689;50.836;3.266;2023-02-14T00:02:06;4.90;99.90
21061;DHT22;10689;50.836;3.266;2023-02-14T00:04:32;4.90;99.90
21061;DHT22;10689;50.836;3.266;2023-02-14T00:07:00;4.90;99.90
21061;DHT22;10689;50.836;3.266;2023-02-14T00:09:28;5.00;99.90
21061;DHT22;10689;50.836;3.266;2023-02-14T00:11:54;4.90;99.90
21061;DHT22;10689;50.836;3.266;2023-02-14T00:14:20;4.90;99.90
21061;DHT22;10689;50.836;3.266;2023-02-14T00:17:04;4.90;99.90
21061;DHT22;10689;50.836;3.266;2023-02-14T00:19:29;4.90;99.90
21061;DHT22;10689;50.836;3.266;2023-02-14T00:21:56;4.90;99.90
21061;DHT22;10689;50.836;3.266;2023-02-14T00:24:24;4.90;99.90
21061;DHT22;10689;50.836;3.266;2023-02-14T00:26:52;5.00;99.90
21061;DHT22;10689;50.836;3.266;2023-02-14T00:29:24;4.90;99.90
21061;DHT22;10689;50.836;3.266;2023-02-14T00:31:50;5.00;99.90
21061;DHT22;10689;50.836;3.266;2023-02-14T00:34:17;5.00;99.90
21061;DHT22;10689;50.836;3.266;2023-02-14T00:36:43;5.00;99.90
21061;DHT22;10689;50.836;3.266;2023-02-14T00:39:11;4.90;99.90
21061;DHT22;10689;50.836;3.266;2023-02-14T00:41:39;4.90;99.90
21061;DHT22;10689;50.836;3.266;2023-02-14T00:44:08;4.90;99.90
21061;DHT22;10689;50.836;3.266;2023-02-14T00:46:34;4.90;99.90
21061;DHT22;10689;50.836;3.266;2023-02-14T00:49:00;5.00;99.90
21061;DHT22;10689;50.836;3.266;2023-02-14T00:51:28;4.90;99.90
21061;DHT22;10689;50.836;3.266;2023-02-14T00:53:54;4.90;99.90
21061;DHT22;10689;50.836;3.266;2023-02-14T00:56:20;4.90;99.90
21061;DHT22;10689;50.836;3.266;2023-02-14T00:58:48;5.00;99.90
21061;DHT22;10689;50.836;3.266;2023-02-14T01:01:19;5.10;99.90
21061;DHT22;10689;50.836;3.266;2023-02-14T01:03:45;5.10;99.90
21061;DHT22;10689;50.836;3.266;2023-02-14T01:06:13;5.10;99.90
21061;DHT22;10689;50.836;3.266;2023-02-14T01:08:39;5.30;99.90
21061;DHT22;10689;50.836;3.266;2023-02-14T01:11:13;5.30;99.90
21061;DHT22;10689;50.836;3.266;2023-02-14T01:13:39;5.30;99.90
21061;DHT22;10689;50.836;3.266;2023-02-14T01:16:08;5.30;99.90
21061;DHT22;10689;50.836;3.266;2023-02-14T01:18:34;5.30;99.90
21061;DHT22;10689;50.836;3.266;2023-02-14T01:21:12;5.40;99.90
21061;DHT22;10689;50.836;3.266;2023-02-14T01:23:38;5.40;99.90
21061;DHT22;10689;50.836;3.266;2023-02-14T01:26:07;5.30;99.90
21061;DHT22;10689;50.836;3.266;2023-02-14T01:28:34;5.40;99.90
21061;DHT22;10689;50.836;3.266;2023-02-14T01:31:21;5.30;99.90
21061;DHT22;10689;50.836;3.266;2023-02-14T01:33:48;5.10;99.90
21061;DHT22;10689;50.836;3.266;2023-02-14T01:36:21;5.00;99.90
21061;DHT22;10689;50.836;3.266;2023-02-14T01:38:53;5.00;99.90
21061;DHT22;10689;50.836;3.266;2023-02-14T01:41:23;5.00;99.90
21061;DHT22;10689;50.836;3.266;2023-02-14T01:43:59;5.00;99.90
21061;DHT22;10689;50.836;3.266;2023-02-14T01:46:30;5.00;99.90
21061;DHT22;10689;50.836;3.266;2023-02-14T01:49:04;5.00;99.90
21061;DHT22;10689;50.836;3.266;2023-02-14T01:51:35;5.00;99.90
21061;DHT22;10689;50.836;3.266;2023-02-14T01:54:02;4.90;99.90
21061;DHT22;10689;50.836;3.266;2023-02-14T01:56:35;4.90;99.90
21061;DHT22;10689;50.836;3.266;2023-02-14T01:59:06;4.90;99.90
21061;DHT22;10689;50.836;3.266;2023-02-14T02:01:32;4.70;99.90
21061;DHT22;10689;50.836;3.266;2023-02-14T02:04:02;4.70;99.90
21061;DHT22;10689;50.836;3.266;2023-02-14T02:06:40;4.80;99.90
21061;DHT22;10689;50.836;3.266;2023-02-14T02:09:43;4.70;99.90
21061;DHT22;10689;50.836;3.266;2023-02-14T02:12:11;4.70;99.90
21061;DHT22;10689;50.836;3.266;2023-02-14T02:14:37;4.60;99.90
21061;DHT22;10689;50.836;3.266;2023-02-14T02:46:40;4.60;99.90
21061;DHT22;10689;50.836;3.266;2023-02-14T02:55:24;4.50;99.90
21061;DHT22;10689;50.836;3.266;2023-02-14T02:57:52;4.50;99.90
21061;DHT22;10689;50.836;3.266;2023-02-14T03:00:20;4.50;99.90
21061;DHT22;10689;50.836;3.266;2023-02-14T03:02:50;4.50;99.90
21061;DHT22;10689;50.836;3.266;2023-02-14T03:05:35;4.60;99.90
21061;DHT22;10689;50.836;3.266;2023-02-14T03:08:04;4.60;99.90
21061;DHT22;10689;50.836;3.266;2023-02-14T03:10:34;4.50;99.90
21061;DHT22;10689;50.836;3.266;2023-02-14T03:15:52;4.60;99.90
21061;DHT22;10689;50.836;3.266;2023-02-14T03:18:37;4.60;99.90
21061;DHT22;10689;50.836;3.266;2023-02-14T03:23:51;4.70;99.90
21061;DHT22;10689;50.836;3.266;2023-02-14T03:26:33;4.70;99.90
21061;DHT22;10689;50.836;3.266;2023-02-14T03:32:12;4.70;99.90
21061;DHT22;10689;50.836;3.266;2023-02-14T03:35:39;4.60;99.90
21061;DHT22;10689;50.836;3.266;2023-02-14T03:37:57;4.60;99.90
21061;DHT22;10689;50.836;3.266;2023-02-14T03:40:32;4.60;99.90
21061;DHT22;10689;50.836;3.266;2023-02-14T03:43:09;4.60;99.90
21061;DHT22;10689;50.836;3.266;2023-02-14T03:45:57;4.60;99.90
21061;DHT22;10689;50.836;3.266;2023-02-14T03:48:28;4.60;99.90
21061;DHT22;10689;50.836;3.266;2023-02-14T03:50:57;4.40;99.90
21061;DHT22;10689;50.836;3.266;2023-02-14T03:53:28;4.40;99.90
21061;DHT22;10689;50.836;3.266;2023-02-14T03:56:20;4.30;99.90
21061;DHT22;10689;50.836;3.266;2023-02-14T03:58:54;4.30;99.90
21061;DHT22;10689;50.836;3.266;2023-02-14T04:01:29;4.30;99.90
21061;DHT22;10689;50.836;3.266;2023-02-14T04:04:00;4.40;99.90
21061;DHT22;10689;50.836;3.266;2023-02-14T04:06:30;4.40;99.90
21061;DHT22;10689;50.836;3.266;2023-02-14T04:08:55;4.50;99.90
21061;DHT22;10689;50.836;3.266;2023-02-14T04:11:21;4.60;99.90
21061;DHT22;10689;50.836;3.266;2023-02-14T04:13:47;4.80;99.90
21061;DHT22;10689;50.836;3.266;2023-02-14T04:16:12;4.80;99.90
21061;DHT22;10689;50.836;3.266;2023-02-14T04:18:38;4.90;99.90
21061;DHT22;10689;50.836;3.266;2023-02-14T04:21:22;5.00;99.90
21061;DHT22;10689;50.836;3.266;2023-02-14T04:23:48;5.10;99.90
21061;DHT22;10689;50.836;3.266;2023-02-14T04:26:13;5.00;99.90
21061;DHT22;10689;50.836;3.266;2023-02-14T04:28:42;5.10;99.90
21061;DHT22;10689;50.836;3.266;2023-02-14T04:31:10;5.10;99.90
21061;DHT22;10689;50.836;3.266;2023-02-14T04:33:36;5.20;99.90
21061;DHT22;10689;50.836;3.266;2023-02-14T04:36:01;5.10;99.90
21061;DHT22;10689;50.836;3.266;2023-02-14T04:38:31;5.00;99.90
21061;DHT22;10689;50.836;3.266;2023-02-14T04:40:57;5.10;99.90
21061;DHT22;10689;50.836;3.266;2023-02-14T04:43:22;5.10;99.90
21061;DHT22;10689;50.836;3.266;2023-02-14T04:45:48;5.10;99.90
21061;DHT22;10689;50.836;3.266;2023-02-14T04:48:14;5.10;99.90
21061;DHT22;10689;50.836;3.266;2023-02-14T04:50:42;5.10;99.90
21061;DHT22;10689;50.836;3.266;2023-02-14T04:53:07;5.20;99.90
21061;DHT22;10689;50.836;3.266;2023-02-14T04:55:33;5.10;99.90
21061;DHT22;10689;50.836;3.266;2023-02-14T04:57:59;5.00;99.90
21061;DHT22;10689;50.836;3.266;2023-02-14T05:00:24;5.00;99.90
21061;DHT22;10689;50.836;3.266;2023-02-14T05:02:50;4.80;99.90
21061;DHT22;10689;50.836;3.266;2023-02-14T05:05:16;4.90;99.90
21061;DHT22;10689;50.836;3.266;2023-02-14T05:07:44;5.10;99.90
21061;DHT22;10689;50.836;3.266;2023-02-14T05:10:14;5.10;99.90
21061;DHT22;10689;50.836;3.266;2023-02-14T05:12:40;5.10;99.90
21061;DHT22;10689;50.836;3.266;2023-02-14T05:15:06;5.00;99.90
21061;DHT22;10689;50.836;3.266;2023-02-14T05:17:32;5.00;99.90
21061;DHT22;10689;50.836;3.266;2023-02-14T05:19:58;5.10;99.90
21061;DHT22;10689;50.836;3.266;2023-02-14T05:22:23;5.00;99.90
21061;DHT22;10689;50.836;3.266;2023-02-14T05:24:49;5.10;99.90
21061;DHT22;10689;50.836;3.266;2023-02-14T05:27:15;5.10;99.90
21061;DHT22;10689;50.836;3.266;2023-02-14T05:29:41;5.00;99.90
21061;DHT22;10689;50.836;3.266;2023-02-14T05:32:09;4.90;99.90
21061;DHT22;10689;50.836;3.266;2023-02-14T05:34:34;4.90;99.90
21061;DHT22;10689;50.836;3.266;2023-02-14T05:37:00;4.80;99.90
21061;DHT22;10689;50.836;3.266;2023-02-14T05:39:27;4.70;99.90
21061;DHT22;10689;50.836;3.266;2023-02-14T05:41:53;4.70;99.90
21061;DHT22;10689;50.836;3.266;2023-02-14T05:44:23;4.60;99.90
21061;DHT22;10689;50.836;3.266;2023-02-14T05:46:49;4.60;99.90
21061;DHT22;10689;50.836;3.266;2023-02-14T05:49:15;4.70;99.90
21061;DHT22;10689;50.836;3.266;2023-02-14T05:51:40;4.70;99.90
21061;DHT22;10689;50.836;3.266;2023-02-14T05:54:06;4.70;99.90
21061;DHT22;10689;50.836;3.266;2023-02-14T05:56:34;4.50;99.90
21061;DHT22;10689;50.836;3.266;2023-02-14T05:59:00;4.50;99.90
21061;DHT22;10689;50.836;3.266;2023-02-14T06:01:25;4.50;99.90
21061;DHT22;10689;50.836;3.266;2023-02-14T06:03:51;4.50;99.90
21061;DHT22;10689;50.836;3.266;2023-02-14T06:06:21;4.50;99.90
21061;DHT22;10689;50.836;3.266;2023-02-14T06:08:47;4.60;99.90
21061;DHT22;10689;50.836;3.266;2023-02-14T06:11:15;4.50;99.90
21061;DHT22;10689;50.836;3.266;2023-02-14T06:13:48;4.40;99.90
21061;DHT22;10689;50.836;3.266;2023-02-14T06:16:14;4.40;99.90
21061;DHT22;10689;50.836;3.266;2023-02-14T06:18:42;4.40;99.90
21061;DHT22;10689;50.836;3.266;2023-02-14T06:21:10;4.40;99.90
21061;DHT22;10689;50.836;3.266;2023-02-14T06:23:35;4.50;99.90
21061;DHT22;10689;50.836;3.266;2023-02-14T06:26:01;4.50;99.90
21061;DHT22;10689;50.836;3.266;2023-02-14T06:28:30;4.40;99.90
21061;DHT22;10689;50.836;3.266;2023-02-14T06:30:58;4.30;99.90
21061;DHT22;10689;50.836;3.266;2023-02-14T06:33:24;4.40;99.90
21061;DHT22;10689;50.836;3.266;2023-02-14T06:35:51;4.40;99.90
21061;DHT22;10689;50.836;3.266;2023-02-14T06:38:17;4.30;99.90
21061;DHT22;10689;50.836;3.266;2023-02-14T06:40:43;4.40;99.90
21061;DHT22;10689;50.836;3.266;2023-02-14T06:43:08;4.40;99.90
21061;DHT22;10689;50.836;3.266;2023-02-14T06:45:36;4.40;99.90
21061;DHT22;10689;50.836;3.266;2023-02-14T06:48:04;4.30;99.90
21061;DHT22;10689;50.836;3.266;2023-02-14T06:50:32;4.30;99.90
21061;DHT22;10689;50.836;3.266;2023-02-14T06:52:58;4.30;99.90
21061;DHT22;10689;50.836;3.266;2023-02-14T06:55:26;4.30;99.90
21061;DHT22;10689;50.836;3.266;2023-02-14T06:57:54;4.40;99.90
21061;DHT22;10689;50.836;3.266;2023-02-14T07:00:20;4.60;99.90
21061;DHT22;10689;50.836;3.266;2023-02-14T07:02:46;4.70;99.90
21061;DHT22;10689;50.836;3.266;2023-02-14T07:05:12;4.70;99.90
21061;DHT22;10689;50.836;3.266;2023-02-14T07:07:41;4.60;99.90
21061;DHT22;10689;50.836;3.266;2023-02-14T07:10:07;4.60;99.90
21061;DHT22;10689;50.836;3.266;2023-02-14T07:12:33;4.50;99.90
21061;DHT22;10689;50.836;3.266;2023-02-14T07:15:05;4.60;99.90
21061;DHT22;10689;50.836;3.266;2023-02-14T07:17:31;4.50;99.90
21061;DHT22;10689;50.836;3.266;2023-02-14T07:19:56;4.40;99.90
21061;DHT22;10689;50.836;3.266;2023-02-14T07:22:22;4.40;99.90
21061;DHT22;10689;50.836;3.266;2023-02-14T07:24:47;4.50;99.90
21061;DHT22;10689;50.836;3.266;2023-02-14T07:27:15;4.50;99.90
21061;DHT22;10689;50.836;3.266;2023-02-14T07:29:41;4.60;99.90
21061;DHT22;10689;50.836;3.266;2023-02-14T07:32:09;4.60;99.90
21061;DHT22;10689;50.836;3.266;2023-02-14T07:34:35;4.80;99.90
21061;DHT22;10689;50.836;3.266;2023-02-14T07:37:01;4.90;99.90
21061;DHT22;10689;50.836;3.266;2023-02-14T07:39:26;5.00;99.90
21061;DHT22;10689;50.836;3.266;2023-02-14T07:41:52;4.90;99.90
21061;DHT22;10689;50.836;3.266;2023-02-14T07:44:20;4.90;99.90
21061;DHT22;10689;50.836;3.266;2023-02-14T07:46:48;4.80;99.90
21061;DHT22;10689;50.836;3.266;2023-02-14T07:49:13;4.80;99.90
21061;DHT22;10689;50.836;3.266;2023-02-14T07:51:41;4.90;99.90
21061;DHT22;10689;50.836;3.266;2023-02-14T07:54:07;5.00;99.90
21061;DHT22;10689;50.836;3.266;2023-02-14T07:56:33;5.10;99.90
21061;DHT22;10689;50.836;3.266;2023-02-14T07:59:00;5.20;99.90
21061;DHT22;10689;50.836;3.266;2023-02-14T08:01:28;5.30;99.90
21061;DHT22;10689;50.836;3.266;2023-02-14T08:03:54;5.40;99.90
21061;DHT22;10689;50.836;3.266;2023-02-14T08:06:20;5.30;99.90
21061;DHT22;10689;50.836;3.266;2023-02-14T08:08:50;5.40;99.90
21061;DHT22;10689;50.836;3.266;2023-02-14T08:11:16;5.40;99.90
21061;DHT22;10689;50.836;3.266;2023-02-14T08:14:01;5.40;99.90
21061;DHT22;10689;50.836;3.266;2023-02-14T08:16:26;5.50;99.90
21061;DHT22;10689;50.836;3.266;2023-02-14T08:18:52;5.50;99.90
21061;DHT22;10689;50.836;3.266;2023-02-14T08:21:18;5.60;99.90
21061;DHT22;10689;50.836;3.266;2023-02-14T08:23:43;5.60;99.90
21061;DHT22;10689;50.836;3.266;2023-02-14T08:26:09;5.70;99.90
21061;DHT22;10689;50.836;3.266;2023-02-14T08:28:35;5.80;99.90
21061;DHT22;10689;50.836;3.266;2023-02-14T08:31:03;5.80;99.90
21061;DHT22;10689;50.836;3.266;2023-02-14T08:33:31;5.90;99.90
21061;DHT22;10689;50.836;3.266;2023-02-14T08:35:56;6.00;99.90
21061;DHT22;10689;50.836;3.266;2023-02-14T08:38:23;6.00;99.90
21061;DHT22;10689;50.836;3.266;2023-02-14T08:40:51;6.00;99.90
21061;DHT22;10689;50.836;3.266;2023-02-14T08:43:16;6.10;99.90
21061;DHT22;10689;50.836;3.266;2023-02-14T08:45:42;6.10;99.90
21061;DHT22;10689;50.836;3.266;2023-02-14T08:48:14;6.20;99.90
21061;DHT22;10689;50.836;3.266;2023-02-14T08:50:39;6.20;99.90
21061;DHT22;10689;50.836;3.266;2023-02-14T08:53:09;6.20;99.90
21061;DHT22;10689;50.836;3.266;2023-02-14T08:55:35;6.20;99.90
21061;DHT22;10689;50.836;3.266;2023-02-14T08:58:02;6.10;99.90
21061;DHT22;10689;50.836;3.266;2023-02-14T09:00:28;6.20;99.90
21061;DHT22;10689;50.836;3.266;2023-02-14T09:02:56;6.30;99.90
21061;DHT22;10689;50.836;3.266;2023-02-14T09:05:24;6.40;99.90
21061;DHT22;10689;50.836;3.266;2023-02-14T09:07:50;6.50;99.90
21061;DHT22;10689;50.836;3.266;2023-02-14T09:10:16;6.50;99.90
21061;DHT22;10689;50.836;3.266;2023-02-14T09:12:43;6.60;99.90
21061;DHT22;10689;50.836;3.266;2023-02-14T09:15:09;6.50;99.90
21061;DHT22;10689;50.836;3.266;2023-02-14T09:17:38;6.50;99.90
21061;DHT22;10689;50.836;3.266;2023-02-14T09:20:06;6.60;99.90
21061;DHT22;10689;50.836;3.266;2023-02-14T09:22:33;6.50;99.90
21061;DHT22;10689;50.836;3.266;2023-02-14T09:24:59;6.60;99.90
21061;DHT22;10689;50.836;3.266;2023-02-14T09:27:25;6.60;99.90
21061;DHT22;10689;50.836;3.266;2023-02-14T09:29:51;6.70;99.90
21061;DHT22;10689;50.836;3.266;2023-02-14T09:32:21;6.80;99.90
21061;DHT22;10689;50.836;3.266;2023-02-14T09:34:47;6.70;99.90
21061;DHT22;10689;50.836;3.266;2023-02-14T09:37:30;6.80;99.90
21061;DHT22;10689;50.836;3.266;2023-02-14T09:39:56;6.80;99.90
21061;DHT22;10689;50.836;3.266;2023-02-14T09:45:10;7.00;99.90
21061;DHT22;10689;50.836;3.266;2023-02-14T09:47:47;7.00;99.90
21061;DHT22;10689;50.836;3.266;2023-02-14T09:52:48;7.20;99.90
21061;DHT22;10689;50.836;3.266;2023-02-14T09:55:20;7.30;99.90
21061;DHT22;10689;50.836;3.266;2023-02-14T09:58:06;7.40;99.90
21061;DHT22;10689;50.836;3.266;2023-02-14T10:01:09;7.40;99.90
21061;DHT22;10689;50.836;3.266;2023-02-14T10:11:51;7.90;99.90
21061;DHT22;10689;50.836;3.266;2023-02-14T10:14:21;8.00;99.90
21061;DHT22;10689;50.836;3.266;2023-02-14T10:17:08;8.00;99.90
21061;DHT22;10689;50.836;3.266;2023-02-14T10:19:44;8.20;99.90
21061;DHT22;10689;50.836;3.266;2023-02-14T10:22:14;8.40;99.90
21061;DHT22;10689;50.836;3.266;2023-02-14T10:24:51;8.40;99.90
21061;DHT22;10689;50.836;3.266;2023-02-14T10:29:57;8.70;99.90
21061;DHT22;10689;50.836;3.266;2023-02-14T10:32:55;8.80;99.90
21061;DHT22;10689;50.836;3.266;2023-02-14T10:35:44;8.80;99.90
21061;DHT22;10689;50.836;3.266;2023-02-14T10:55:17;9.80;99.90
21061;DHT22;10689;50.836;3.266;2023-02-14T10:57:45;10.10;99.90
21061;DHT22;10689;50.836;3.266;2023-02-14T11:00:40;10.20;99.90
21061;DHT22;10689;50.836;3.266;2023-02-14T11:03:10;10.30;99.90
21061;DHT22;10689;50.836;3.266;2023-02-14T11:05:43;10.50;99.90
21061;DHT22;10689;50.836;3.266;2023-02-14T11:10:58;10.70;99.90
21061;DHT22;10689;50.836;3.266;2023-02-14T11:13:34;10.80;99.90
21061;DHT22;10689;50.836;3.266;2023-02-14T11:16:03;11.00;99.90
21061;DHT22;10689;50.836;3.266;2023-02-14T11:18:30;11.20;99.90
21061;DHT22;10689;50.836;3.266;2023-02-14T11:26:06;11.30;99.90
21061;DHT22;10689;50.836;3.266;2023-02-14T11:28:47;11.50;99.90
21061;DHT22;10689;50.836;3.266;2023-02-14T11:31:15;11.60;99.90
21061;DHT22;10689;50.836;3.266;2023-02-14T11:33:48;11.70;99.90
21061;DHT22;10689;50.836;3.266;2023-02-14T11:36:18;11.80;99.90
21061;DHT22;10689;50.836;3.266;2023-02-14T11:38:44;11.90;99.90
21061;DHT22;10689;50.836;3.266;2023-02-14T11:41:18;12.00;99.90
21061;DHT22;10689;50.836;3.266;2023-02-14T11:43:47;12.10;99.90
21061;DHT22;10689;50.836;3.266;2023-02-14T11:51:42;12.50;99.90
21061;DHT22;10689;50.836;3.266;2023-02-14T11:54:20;12.40;99.90
21061;DHT22;10689;50.836;3.266;2023-02-14T11:59:30;12.50;99.90
21061;DHT22;10689;50.836;3.266;2023-02-14T12:02:01;12.70;99.90
21061;DHT22;10689;50.836;3.266;2023-02-14T12:04:38;12.90;99.90
21061;DHT22;10689;50.836;3.266;2023-02-14T12:09:48;13.10;99.90
21061;DHT22;10689;50.836;3.266;2023-02-14T12:12:29;13.20;99.90
21061;DHT22;10689;50.836;3.266;2023-02-14T12:15:22;13.40;99.90
21061;DHT22;10689;50.836;3.266;2023-02-14T12:17:55;13.50;99.90
21061;DHT22;10689;50.836;3.266;2023-02-14T12:20:36;13.60;99.90
21061;DHT22;10689;50.836;3.266;2023-02-14T12:31:37;14.20;99.90
21061;DHT22;10689;50.836;3.266;2023-02-14T12:34:03;14.30;99.90
21061;DHT22;10689;50.836;3.266;2023-02-14T12:42:57;14.60;99.90
21061;DHT22;10689;50.836;3.266;2023-02-14T13:08:31;15.50;99.90
21061;DHT22;10689;50.836;3.266;2023-02-14T13:19:40;15.30;99.90
21061;DHT22;10689;50.836;3.266;2023-02-14T13:22:10;15.40;99.90
21061;DHT22;10689;50.836;3.266;2023-02-14T13:24:46;15.60;99.90
21061;DHT22;10689;50.836;3.266;2023-02-14T13:27:18;15.70;99.90
21061;DHT22;10689;50.836;3.266;2023-02-14T13:29:57;15.70;99.90
21061;DHT22;10689;50.836;3.266;2023-02-14T13:32:31;15.70;99.90
21061;DHT22;10689;50.836;3.266;2023-02-14T13:34:58;15.70;99.90
21061;DHT22;10689;50.836;3.266;2023-02-14T13:37:27;15.70;99.90
21061;DHT22;10689;50.836;3.266;2023-02-14T13:39:57;15.60;99.90
21061;DHT22;10689;50.836;3.266;2023-02-14T13:50:53;15.80;99.90
21061;DHT22;10689;50.836;3.266;2023-02-14T13:55:54;15.70;99.90
21061;DHT22;10689;50.836;3.266;2023-02-14T13:58:23;15.60;99.90
21061;DHT22;10689;50.836;3.266;2023-02-14T14:00:54;15.50;99.90
21061;DHT22;10689;50.836;3.266;2023-02-14T14:06:06;15.60;99.90
21061;DHT22;10689;50.836;3.266;2023-02-14T14:08:33;15.50;99.90
21061;DHT22;10689;50.836;3.266;2023-02-14T14:16:55;15.40;99.90
21061;DHT22;10689;50.836;3.266;2023-02-14T14:24:30;15.00;99.90
21061;DHT22;10689;50.836;3.266;2023-02-14T14:31:53;14.80;99.90
21061;DHT22;10689;50.836;3.266;2023-02-14T14:34:24;14.80;99.90
21061;DHT22;10689;50.836;3.266;2023-02-14T14:37:04;14.70;99.90
21061;DHT22;10689;50.836;3.266;2023-02-14T14:39:32;14.70;99.90
21061;DHT22;10689;50.836;3.266;2023-02-14T14:42:12;14.60;99.90
21061;DHT22;10689;50.836;3.266;2023-02-14T14:44:54;14.60;99.90
21061;DHT22;10689;50.836;3.266;2023-02-14T14:47:24;14.40;99.90
21061;DHT22;10689;50.836;3.266;2023-02-14T14:49:52;14.30;99.90
21061;DHT22;10689;50.836;3.266;2023-02-14T14:52:33;14.20;99.90
21061;DHT22;10689;50.836;3.266;2023-02-14T14:54:59;14.20;99.90
21061;DHT22;10689;50.836;3.266;2023-02-14T14:57:26;14.30;99.90
21061;DHT22;10689;50.836;3.266;2023-02-14T15:00:18;14.20;99.90
21061;DHT22;10689;50.836;3.266;2023-02-14T15:05:46;14.10;99.90
21061;DHT22;10689;50.836;3.266;2023-02-14T15:08:30;14.10;99.90
21061;DHT22;10689;50.836;3.266;2023-02-14T15:11:14;14.10;99.90
21061;DHT22;10689;50.836;3.266;2023-02-14T15:14:04;14.00;99.90
21061;DHT22;10689;50.836;3.266;2023-02-14T15:16:49;13.80;99.90
21061;DHT22;10689;50.836;3.266;2023-02-14T15:19:29;13.70;99.90
21061;DHT22;10689;50.836;3.266;2023-02-14T15:22:20;13.70;99.90
21061;DHT22;10689;50.836;3.266;2023-02-14T15:24:46;13.60;99.90
21061;DHT22;10689;50.836;3.266;2023-02-14T15:27:18;13.50;99.90
21061;DHT22;10689;50.836;3.266;2023-02-14T15:29:59;13.40;99.90
21061;DHT22;10689;50.836;3.266;2023-02-14T15:32:28;13.40;99.90
21061;DHT22;10689;50.836;3.266;2023-02-14T15:34:55;13.20;99.90
21061;DHT22;10689;50.836;3.266;2023-02-14T15:37:21;13.20;99.90
21061;DHT22;10689;50.836;3.266;2023-02-14T15:39:50;13.10;99.90
21061;DHT22;10689;50.836;3.266;2023-02-14T15:47:39;13.10;99.90
21061;DHT22;10689;50.836;3.266;2023-02-14T15:50:19;13.00;99.90
21061;DHT22;10689;50.836;3.266;2023-02-14T15:52:49;13.00;99.90
21061;DHT22;10689;50.836;3.266;2023-02-14T15:55:24;12.90;99.90
21061;DHT22;10689;50.836;3.266;2023-02-14T15:57:57;12.80;99.90
21061;DHT22;10689;50.836;3.266;2023-02-14T16:00:23;12.80;99.90
21061;DHT22;10689;50.836;3.266;2023-02-14T16:02:56;13.00;99.90
21061;DHT22;10689;50.836;3.266;2023-02-14T16:05:27;12.80;99.90
21061;DHT22;10689;50.836;3.266;2023-02-14T16:08:04;12.80;99.90
21061;DHT22;10689;50.836;3.266;2023-02-14T16:10:38;12.70;99.90
21061;DHT22;10689;50.836;3.266;2023-02-14T16:15:56;12.40;99.90
21061;DHT22;10689;50.836;3.266;2023-02-14T16:21:22;12.20;99.90
21061;DHT22;10689;50.836;3.266;2023-02-14T16:26:37;12.20;99.90
21061;DHT22;10689;50.836;3.266;2023-02-14T16:29:05;12.20;99.90
21061;DHT22;10689;50.836;3.266;2023-02-14T16:31:32;12.30;99.90
21061;DHT22;10689;50.836;3.266;2023-02-14T16:33:57;12.10;99.90
21061;DHT22;10689;50.836;3.266;2023-02-14T16:36:28;11.90;99.90
21061;DHT22;10689;50.836;3.266;2023-02-14T16:38:54;11.70;99.90
21061;DHT22;10689;50.836;3.266;2023-02-14T16:41:27;11.70;99.90
21061;DHT22;10689;50.836;3.266;2023-02-14T16:43:54;11.70;99.90
21061;DHT22;10689;50.836;3.266;2023-02-14T16:46:34;11.70;99.90
21061;DHT22;10689;50.836;3.266;2023-02-14T16:49:00;11.60;99.90
21061;DHT22;10689;50.836;3.266;2023-02-14T16:51:31;11.40;99.90
21061;DHT22;10689;50.836;3.266;2023-02-14T16:53:59;11.30;99.90
21061;DHT22;10689;50.836;3.266;2023-02-14T16:56:49;11.20;99.90
21061;DHT22;10689;50.836;3.266;2023-02-14T16:59:15;11.20;99.90
21061;DHT22;10689;50.836;3.266;2023-02-14T17:01:41;11.00;99.90
21061;DHT22;10689;50.836;3.266;2023-02-14T17:04:07;10.80;99.90
21061;DHT22;10689;50.836;3.266;2023-02-14T17:06:35;10.70;99.90
21061;DHT22;10689;50.836;3.266;2023-02-14T17:09:05;10.70;99.90
21061;DHT22;10689;50.836;3.266;2023-02-14T17:11:36;10.60;99.90
21061;DHT22;10689;50.836;3.266;2023-02-14T17:14:05;10.60;99.90
21061;DHT22;10689;50.836;3.266;2023-02-14T17:16:31;10.60;99.90
21061;DHT22;10689;50.836;3.266;2023-02-14T17:19:01;10.60;99.90
21061;DHT22;10689;50.836;3.266;2023-02-14T17:21:27;10.50;99.90
21061;DHT22;10689;50.836;3.266;2023-02-14T17:23:55;10.40;99.90
21061;DHT22;10689;50.836;3.266;2023-02-14T17:26:23;10.40;99.90
21061;DHT22;10689;50.836;3.266;2023-02-14T17:28:49;10.20;99.90
21061;DHT22;10689;50.836;3.266;2023-02-14T17:31:14;10.10;99.90
21061;DHT22;10689;50.836;3.266;2023-02-14T17:33:40;10.10;99.90
21061;DHT22;10689;50.836;3.266;2023-02-14T17:36:08;10.00;99.90
21061;DHT22;10689;50.836;3.266;2023-02-14T17:38:34;9.90;99.90
21061;DHT22;10689;50.836;3.266;2023-02-14T17:43:40;9.70;99.90
21061;DHT22;10689;50.836;3.266;2023-02-14T17:46:10;9.50;99.90
21061;DHT22;10689;50.836;3.266;2023-02-14T17:48:38;9.40;99.90
21061;DHT22;10689;50.836;3.266;2023-02-14T17:51:08;9.20;99.90
21061;DHT22;10689;50.836;3.266;2023-02-14T17:53:34;9.20;99.90
21061;DHT22;10689;50.836;3.266;2023-02-14T17:56:08;9.10;99.90
21061;DHT22;10689;50.836;3.266;2023-02-14T17:58:35;9.10;99.90
21061;DHT22;10689;50.836;3.266;2023-02-14T18:01:05;9.00;99.90
21061;DHT22;10689;50.836;3.266;2023-02-14T18:03:31;8.90;99.90
21061;DHT22;10689;50.836;3.266;2023-02-14T18:06:00;8.70;99.90
21061;DHT22;10689;50.836;3.266;2023-02-14T18:08:31;8.70;99.90
21061;DHT22;10689;50.836;3.266;2023-02-14T18:11:03;8.70;99.90
21061;DHT22;10689;50.836;3.266;2023-02-14T18:13:33;8.70;99.90
21061;DHT22;10689;50.836;3.266;2023-02-14T18:16:07;8.60;99.90
21061;DHT22;10689;50.836;3.266;2023-02-14T18:18:36;8.30;99.90
21061;DHT22;10689;50.836;3.266;2023-02-14T18:21:03;8.10;99.90
21061;DHT22;10689;50.836;3.266;2023-02-14T18:23:32;8.10;99.90
21061;DHT22;10689;50.836;3.266;2023-02-14T18:26:02;8.20;99.90
21061;DHT22;10689;50.836;3.266;2023-02-14T18:28:34;8.20;99.90
21061;DHT22;10689;50.836;3.266;2023-02-14T18:31:10;8.20;99.90
21061;DHT22;10689;50.836;3.266;2023-02-14T18:33:37;8.20;99.90
21061;DHT22;10689;50.836;3.266;2023-02-14T18:36:04;8.00;99.90
21061;DHT22;10689;50.836;3.266;2023-02-14T18:38:32;8.00;99.90
21061;DHT22;10689;50.836;3.266;2023-02-14T18:41:05;7.90;99.90
21061;DHT22;10689;50.836;3.266;2023-02-14T18:43:31;7.90;99.90
21061;DHT22;10689;50.836;3.266;2023-02-14T18:46:08;7.70;99.90
21061;DHT22;10689;50.836;3.266;2023-02-14T18:48:35;7.50;99.90
21061;DHT22;10689;50.836;3.266;2023-02-14T18:51:09;7.60;99.90
21061;DHT22;10689;50.836;3.266;2023-02-14T18:53:36;7.40;99.90
21061;DHT22;10689;50.836;3.266;2023-02-14T18:56:07;7.30;99.90
21061;DHT22;10689;50.836;3.266;2023-02-14T18:58:34;7.30;99.90
21061;DHT22;10689;50.836;3.266;2023-02-14T19:01:11;7.20;99.90
21061;DHT22;10689;50.836;3.266;2023-02-14T19:03:38;7.30;99.90
21061;DHT22;10689;50.836;3.266;2023-02-14T19:06:05;7.30;99.90
21061;DHT22;10689;50.836;3.266;2023-02-14T19:08:32;7.20;99.90
21061;DHT22;10689;50.836;3.266;2023-02-14T19:10:58;7.20;99.90
21061;DHT22;10689;50.836;3.266;2023-02-14T19:13:24;7.20;99.90